createdAt,value
2022-11-05T00:00:36.735Z,4.07
2022-11-05T00:03:03.522Z,4.20
2022-11-05T00:05:30.987Z,3.58
2022-11-05T00:08:02.619Z,3.67
2022-11-05T00:10:31.344Z,4.07
2022-11-05T00:12:59.359Z,3.72
2022-11-05T00:15:25.909Z,4.00
2022-11-05T00:17:52.506Z,4.30
2022-11-05T00:20:19.088Z,5.05
2022-11-05T00:22:45.646Z,4.78
2022-11-05T00:25:13.561Z,4.47
2022-11-05T00:27:40.550Z,4.75
2022-11-05T00:30:08.377Z,4.95
2022-11-05T00:32:36.636Z,4.70
2022-11-05T00:35:03.574Z,5.00
2022-11-05T00:37:30.299Z,4.57
2022-11-05T00:39:56.963Z,4.78
2022-11-05T00:42:24.957Z,4.43
2022-11-05T00:44:51.544Z,4.18
2022-11-05T00:47:18.107Z,4.22
2022-11-05T00:49:44.698Z,4.13
2022-11-05T00:52:11.468Z,3.35
2022-11-05T00:54:38.064Z,3.85
2022-11-05T00:57:04.982Z,3.95
2022-11-05T00:59:32.930Z,3.47
2022-11-05T01:02:01.095Z,3.42
2022-11-05T01:04:27.787Z,3.72
2022-11-05T01:06:55.068Z,3.38
2022-11-05T01:09:21.606Z,3.03
2022-11-05T01:11:48.173Z,2.80
2022-11-05T01:14:15.794Z,2.47
2022-11-05T01:16:43.876Z,2.40
2022-11-05T01:19:11.476Z,2.38
2022-11-05T01:21:38.482Z,2.97
2022-11-05T01:24:05.862Z,2.90
2022-11-05T01:26:32.483Z,2.72
2022-11-05T01:28:59.237Z,2.80
2022-11-05T01:31:26.267Z,2.47
2022-11-05T01:33:54.177Z,2.30
2022-11-05T01:36:20.843Z,2.55
2022-11-05T01:38:47.465Z,2.58
2022-11-05T01:41:14.124Z,2.50
2022-11-05T01:43:49.339Z,2.33
2022-11-05T01:46:19.821Z,2.75
2022-11-05T01:48:49.056Z,2.50
2022-11-05T01:51:19.962Z,2.20
2022-11-05T01:53:50.808Z,2.67
2022-11-05T01:56:24.097Z,2.22
2022-11-05T01:58:56.643Z,2.67
2022-11-05T02:03:54.472Z,2.22
2022-11-05T02:06:22.511Z,2.33
2022-11-05T02:08:56.754Z,2.30
2022-11-05T02:11:23.588Z,2.15
2022-11-05T02:13:50.789Z,2.80
2022-11-05T02:16:30.413Z,2.72
2022-11-05T02:19:12.105Z,2.38
2022-11-05T02:21:57.957Z,3.95
2022-11-05T02:24:50.870Z,4.00
2022-11-05T02:27:26.286Z,4.80
2022-11-05T02:30:12.121Z,4.30
2022-11-05T02:32:57.441Z,5.60
2022-11-05T02:35:35.453Z,5.80
2022-11-05T02:38:08.381Z,5.25
2022-11-05T02:40:46.661Z,8.38
2022-11-05T02:43:21.590Z,7.13
2022-11-05T02:45:57.185Z,8.10
2022-11-05T02:48:30.205Z,8.43
2022-11-05T02:51:03.457Z,8.65
2022-11-05T02:53:38.729Z,8.18
2022-11-05T02:56:10.557Z,8.93
2022-11-05T02:58:37.099Z,9.00
2022-11-05T03:01:03.743Z,10.18
2022-11-05T03:03:37.140Z,9.02
2022-11-05T03:06:29.313Z,9.40
2022-11-05T03:09:35.156Z,8.57
2022-11-05T03:12:10.753Z,9.40
2022-11-05T03:14:44.478Z,9.65
2022-11-05T03:17:19.655Z,9.57
2022-11-05T03:19:53.728Z,10.95
2022-11-05T03:22:25.670Z,10.23
2022-11-05T03:25:02.392Z,10.25
2022-11-05T03:27:31.710Z,10.90
2022-11-05T03:30:01.672Z,10.63
2022-11-05T03:32:31.604Z,10.57
2022-11-05T03:35:04.867Z,11.15
2022-11-05T03:37:35.328Z,11.70
2022-11-05T03:40:05.055Z,13.38
2022-11-05T03:42:35.999Z,12.90
2022-11-05T03:45:07.843Z,13.48
2022-11-05T03:47:39.344Z,13.80
2022-11-05T03:50:15.327Z,14.93
2022-11-05T03:52:47.292Z,13.52
2022-11-05T03:55:14.405Z,14.45
2022-11-05T03:57:46.682Z,13.98
2022-11-05T04:00:14.412Z,14.15
2022-11-05T04:02:41.863Z,15.55
2022-11-05T04:05:10.208Z,14.90
2022-11-05T04:07:36.708Z,15.57
2022-11-05T04:10:03.591Z,17.13
2022-11-05T04:12:30.563Z,15.52
2022-11-05T04:14:57.140Z,15.82
2022-11-05T04:17:23.925Z,16.00
2022-11-05T04:19:50.466Z,16.50
2022-11-05T04:22:18.433Z,15.35
2022-11-05T04:24:44.974Z,15.88
2022-11-05T04:27:11.518Z,15.00
2022-11-05T04:29:38.165Z,16.48
2022-11-05T04:32:05.402Z,16.83
2022-11-05T04:34:31.963Z,16.50
2022-11-05T04:36:58.448Z,16.95
2022-11-05T04:39:26.333Z,16.92
2022-11-05T04:41:52.961Z,17.30
2022-11-05T04:44:19.601Z,16.92
2022-11-05T04:46:46.211Z,17.73
2022-11-05T04:49:12.739Z,17.08
2022-11-05T04:51:39.405Z,16.67
2022-11-05T04:54:06.015Z,17.48
2022-11-05T04:56:34.151Z,17.40
2022-11-05T04:59:00.765Z,17.55
2022-11-05T05:01:27.357Z,17.50
2022-11-05T05:03:54.618Z,18.45
2022-11-05T05:06:22.144Z,17.35
2022-11-05T05:08:49.829Z,17.95
2022-11-05T05:11:17.945Z,18.70
2022-11-05T05:13:46.493Z,18.38
2022-11-05T05:16:18.610Z,18.95
2022-11-05T05:18:46.430Z,18.20
2022-11-05T05:21:13.599Z,18.38
2022-11-05T05:23:40.192Z,18.85
2022-11-05T05:26:06.694Z,19.08
2022-11-05T05:28:33.589Z,19.77
2022-11-05T05:31:02.132Z,19.02
2022-11-05T05:33:28.822Z,19.80
2022-11-05T05:35:57.493Z,19.40
2022-11-05T05:38:24.296Z,19.48
2022-11-05T05:40:51.519Z,17.88
2022-11-05T05:43:18.129Z,18.98
2022-11-05T05:45:44.636Z,19.58
2022-11-05T05:48:12.551Z,18.80
2022-11-05T05:50:39.081Z,19.80
2022-11-05T05:53:08.904Z,20.45
2022-11-05T05:55:35.684Z,21.50
2022-11-05T05:58:02.339Z,20.15
2022-11-05T06:00:29.259Z,21.20
2022-11-05T06:02:56.145Z,19.67
2022-11-05T06:05:24.282Z,20.20
2022-11-05T06:07:55.499Z,20.45
2022-11-05T06:10:22.135Z,19.75
2022-11-05T06:12:48.725Z,20.48
2022-11-05T06:15:15.317Z,19.08
2022-11-05T06:17:43.096Z,20.25
2022-11-05T06:20:10.702Z,19.88
2022-11-05T06:22:39.323Z,19.67
2022-11-05T06:25:07.303Z,19.40
2022-11-05T06:27:34.106Z,18.98
2022-11-05T06:30:00.659Z,19.42
2022-11-05T06:32:27.154Z,18.38
2022-11-05T06:34:53.709Z,18.67
2022-11-05T06:37:20.234Z,19.02
2022-11-05T06:39:48.120Z,18.70
2022-11-05T06:42:19.111Z,18.40
2022-11-05T06:44:46.092Z,17.92
2022-11-05T06:47:12.673Z,17.90
2022-11-05T06:49:39.260Z,18.05
2022-11-05T06:52:05.739Z,18.02
2022-11-05T06:54:32.398Z,18.73
2022-11-05T06:57:00.238Z,18.25
2022-11-05T06:59:26.774Z,19.02
2022-11-05T07:01:53.405Z,18.92
2022-11-05T07:04:20.027Z,20.15
2022-11-05T07:06:46.630Z,17.20
2022-11-05T07:09:13.185Z,17.98
2022-11-05T07:11:39.779Z,16.52
2022-11-05T07:14:07.654Z,17.52
2022-11-05T07:16:34.192Z,17.67
2022-11-05T07:19:00.864Z,17.90
2022-11-05T07:21:28.393Z,17.25
2022-11-05T07:23:54.954Z,17.10
2022-11-05T07:26:21.496Z,17.23
2022-11-05T07:28:48.030Z,16.85
2022-11-05T07:31:15.904Z,16.55
2022-11-05T07:33:42.408Z,16.73
2022-11-05T07:36:09.883Z,17.35
2022-11-05T07:38:36.378Z,16.60
2022-11-05T07:41:02.949Z,16.35
2022-11-05T07:43:29.509Z,15.95
2022-11-05T07:45:56.284Z,16.30
2022-11-05T07:48:24.272Z,16.30
2022-11-05T07:50:52.098Z,15.65
2022-11-05T07:53:18.936Z,15.60
2022-11-05T07:55:45.542Z,15.18
2022-11-05T07:58:12.299Z,14.77
2022-11-05T08:00:39.096Z,15.50
2022-11-05T08:03:09.332Z,14.93
2022-11-05T08:05:39.584Z,14.45
2022-11-05T08:08:07.856Z,14.90
2022-11-05T08:10:35.182Z,14.32
2022-11-05T08:13:01.914Z,15.98
2022-11-05T08:15:29.092Z,15.30
2022-11-05T08:17:58.636Z,14.70
2022-11-05T08:20:25.282Z,14.55
2022-11-05T08:22:53.180Z,15.57
2022-11-05T08:25:19.840Z,15.25
2022-11-05T08:27:46.445Z,14.57
2022-11-05T08:30:13.168Z,15.82
2022-11-05T08:32:39.901Z,16.10
2022-11-05T08:35:07.011Z,17.40
2022-11-05T08:37:33.560Z,16.13
2022-11-05T08:40:01.451Z,16.45
2022-11-05T08:42:27.963Z,15.45
2022-11-05T08:44:54.786Z,17.05
2022-11-05T08:47:21.289Z,16.15
2022-11-05T08:49:47.822Z,16.55
2022-11-05T08:52:14.534Z,15.75
2022-11-05T08:54:41.144Z,13.88
2022-11-05T08:57:08.996Z,16.08
2022-11-05T08:59:35.553Z,16.15
2022-11-05T09:02:02.191Z,15.23
2022-11-05T09:04:28.797Z,14.23
2022-11-05T09:06:55.385Z,15.68
2022-11-05T09:09:21.906Z,15.48
2022-11-05T09:12:11.186Z,14.38
2022-11-05T09:14:36.370Z,14.02
2022-11-05T09:17:02.897Z,13.95
2022-11-05T09:19:29.424Z,13.43
2022-11-05T09:21:55.987Z,12.93
2022-11-05T09:24:22.557Z,12.38
2022-11-05T09:26:49.029Z,12.27
2022-11-05T09:29:15.577Z,12.07
2022-11-05T09:31:43.834Z,10.95
2022-11-05T09:34:10.383Z,10.32
2022-11-05T09:36:36.879Z,10.75
2022-11-05T09:39:03.549Z,9.02
2022-11-05T09:41:35.558Z,10.13
2022-11-05T09:44:05.274Z,9.85
2022-11-05T09:46:40.972Z,10.30
2022-11-05T09:49:22.769Z,9.77
2022-11-05T09:51:49.423Z,10.10
2022-11-05T09:54:16.120Z,9.70
2022-11-05T09:56:43.187Z,9.05
2022-11-05T09:59:17.953Z,9.52
2022-11-05T10:01:45.510Z,8.43
2022-11-05T10:04:18.449Z,8.88
2022-11-05T10:06:47.600Z,8.25
2022-11-05T10:09:21.100Z,8.95
2022-11-05T10:11:53.283Z,9.32
2022-11-05T10:14:23.985Z,9.05
2022-11-05T10:16:56.502Z,8.93
2022-11-05T10:22:10.963Z,9.00
2022-11-05T10:24:41.605Z,9.20
2022-11-05T10:27:14.601Z,8.80
2022-11-05T10:29:43.251Z,9.05
2022-11-05T10:32:17.768Z,9.32
2022-11-05T10:34:45.828Z,9.60
2022-11-05T10:37:12.532Z,9.55
2022-11-05T10:39:39.137Z,8.93
2022-11-05T10:42:24.283Z,9.20
2022-11-05T10:44:55.984Z,8.75
2022-11-05T10:47:45.290Z,8.77
2022-11-05T10:50:17.204Z,7.53
2022-11-05T10:52:55.494Z,7.63
2022-11-05T10:55:26.209Z,7.75
2022-11-05T10:57:53.558Z,7.68
2022-11-05T11:00:27.311Z,7.45
2022-11-05T11:02:56.684Z,6.57
2022-11-05T11:05:28.646Z,7.40
2022-11-05T11:08:05.309Z,7.22
2022-11-05T11:10:42.208Z,8.00
2022-11-05T11:13:18.949Z,7.22
2022-11-05T11:15:45.542Z,6.72
2022-11-05T11:18:26.368Z,7.10
2022-11-05T11:21:05.359Z,7.00
2022-11-05T11:23:37.163Z,6.35
2022-11-05T11:26:03.974Z,7.28
2022-11-05T11:28:34.829Z,6.60
2022-11-05T11:31:06.115Z,6.05
2022-11-05T11:33:35.022Z,6.90
2022-11-05T11:36:03.807Z,6.85
2022-11-05T11:38:32.879Z,6.20
2022-11-05T11:41:03.135Z,6.18
2022-11-05T11:43:33.384Z,5.93
2022-11-05T11:46:06.062Z,6.55
2022-11-05T11:48:36.224Z,5.28
2022-11-05T11:51:18.749Z,5.03
2022-11-05T11:53:47.831Z,5.72
2022-11-05T11:56:17.475Z,5.38
2022-11-05T11:58:47.312Z,5.40
2022-11-05T12:01:46.908Z,5.55
2022-11-05T12:04:48.921Z,4.32
2022-11-05T12:07:37.990Z,4.00
2022-11-05T12:10:20.550Z,4.22
2022-11-05T12:15:29.915Z,5.00
2022-11-05T12:18:01.998Z,4.78
2022-11-05T12:20:48.455Z,4.10
2022-11-05T12:23:36.384Z,3.85
2022-11-05T12:26:14.942Z,3.53
2022-11-05T12:29:17.164Z,4.07
2022-11-05T12:31:52.446Z,3.45
2022-11-05T12:34:35.597Z,3.63
2022-11-05T12:37:18.118Z,3.75
2022-11-05T12:42:36.091Z,2.75
2022-11-05T12:45:12.312Z,3.40
2022-11-05T12:47:54.641Z,3.20
2022-11-05T12:50:28.566Z,2.80
2022-11-05T12:53:44.368Z,3.10
2022-11-05T12:56:18.689Z,3.13
2022-11-05T12:58:50.476Z,3.47
2022-11-05T13:01:21.962Z,2.83
2022-11-05T13:03:54.264Z,2.87
2022-11-05T13:06:25.517Z,2.90
2022-11-05T13:09:00.465Z,2.90
2022-11-05T13:11:34.497Z,2.70
2022-11-05T13:14:11.207Z,3.50
2022-11-05T13:16:40.677Z,2.83
2022-11-05T13:19:15.772Z,2.85
2022-11-05T13:21:44.120Z,2.90
2022-11-05T13:24:17.527Z,2.80
2022-11-05T13:27:01.552Z,2.55
2022-11-05T13:29:35.087Z,2.72
2022-11-05T13:32:21.583Z,2.30
2022-11-05T13:34:49.153Z,2.47
2022-11-05T13:37:25.879Z,3.00
2022-11-05T13:40:01.300Z,2.17
2022-11-05T13:42:56.477Z,2.67
2022-11-05T13:45:42.507Z,2.95
2022-11-05T13:48:31.881Z,2.60
2022-11-05T13:51:42.982Z,3.10
2022-11-05T13:54:46.548Z,2.70
2022-11-05T13:57:43.741Z,2.83
2022-11-05T14:00:17.372Z,3.67
2022-11-05T14:02:48.090Z,4.05
2022-11-05T14:05:27.692Z,5.20
2022-11-05T14:07:56.004Z,4.93
2022-11-05T14:10:33.921Z,4.10
2022-11-05T14:13:09.063Z,4.32
2022-11-05T14:15:37.336Z,4.40
2022-11-05T14:18:06.217Z,4.50
2022-11-05T14:20:58.428Z,4.43
2022-11-05T14:23:38.288Z,4.68
2022-11-05T14:26:23.364Z,4.20
2022-11-05T14:29:14.549Z,4.65
2022-11-05T14:32:08.403Z,3.97
2022-11-05T14:34:45.832Z,2.95
2022-11-05T14:37:24.754Z,3.17
2022-11-05T14:39:53.422Z,2.63
2022-11-05T14:42:24.459Z,2.53
2022-11-05T14:45:25.825Z,2.90
2022-11-05T14:47:57.627Z,2.70
2022-11-05T14:50:31.877Z,2.65
2022-11-05T14:53:04.549Z,2.35
2022-11-05T14:55:34.837Z,2.70
2022-11-05T14:58:05.268Z,2.78
2022-11-05T15:00:48.193Z,2.35
2022-11-05T15:03:39.768Z,2.47
2022-11-05T15:06:25.833Z,2.38
2022-11-05T15:09:11.051Z,2.70
2022-11-05T15:11:40.547Z,1.70
2022-11-05T15:14:18.395Z,2.20
2022-11-05T15:16:50.014Z,1.90
2022-11-05T15:19:22.603Z,2.20
2022-11-05T15:21:49.695Z,2.30
2022-11-05T15:24:19.047Z,1.90
2022-11-05T15:26:51.319Z,2.05
2022-11-05T15:29:19.575Z,2.15
2022-11-05T15:31:46.766Z,1.92
2022-11-05T15:34:21.169Z,2.10
2022-11-05T15:36:56.137Z,1.70
2022-11-05T15:39:31.042Z,1.75
2022-11-05T15:41:58.588Z,2.08
2022-11-05T15:44:27.394Z,2.30
2022-11-05T15:47:22.351Z,2.30
2022-11-05T15:49:53.016Z,2.13
2022-11-05T15:52:21.849Z,2.63
2022-11-05T15:55:16.904Z,1.85
2022-11-05T15:57:50.628Z,1.70
2022-11-05T16:00:20.309Z,1.80
2022-11-05T16:02:54.531Z,1.83
2022-11-05T16:05:25.238Z,2.15
2022-11-05T16:07:52.289Z,2.20
2022-11-05T16:10:21.346Z,2.28
2022-11-05T16:12:48.372Z,2.30
2022-11-05T16:15:21.145Z,2.47
2022-11-05T16:17:51.261Z,2.40
2022-11-05T16:20:20.534Z,2.53
2022-11-05T16:22:49.964Z,2.33
2022-11-05T16:25:37.621Z,2.70
2022-11-05T16:28:06.337Z,2.75
2022-11-05T16:30:33.048Z,3.20
2022-11-05T16:33:04.760Z,3.97
2022-11-05T16:35:31.706Z,6.80
2022-11-05T16:38:00.910Z,8.48
2022-11-05T16:40:27.706Z,8.57
2022-11-05T16:42:54.485Z,12.55
2022-11-05T16:45:24.374Z,15.38
2022-11-05T16:47:51.955Z,10.95
2022-11-05T16:50:23.672Z,6.40
2022-11-05T16:52:50.882Z,6.45
2022-11-05T16:55:19.216Z,7.10
2022-11-05T16:57:49.579Z,8.85
2022-11-05T17:00:18.100Z,8.80
2022-11-05T17:02:45.091Z,7.43
2022-11-05T17:05:19.346Z,5.75
2022-11-05T17:07:46.368Z,3.92
2022-11-05T17:10:13.317Z,3.83
2022-11-05T17:12:41.639Z,3.35
2022-11-05T17:15:17.725Z,3.22
2022-11-05T17:17:44.724Z,2.45
2022-11-05T17:20:19.047Z,2.58
2022-11-05T17:22:45.634Z,2.05
2022-11-05T17:25:12.227Z,2.22
2022-11-05T17:27:38.952Z,2.42
2022-11-05T17:30:09.240Z,2.28
2022-11-05T17:32:36.195Z,1.90
2022-11-05T17:35:03.673Z,1.85
2022-11-05T17:37:30.517Z,2.28
2022-11-05T17:39:57.219Z,2.20
2022-11-05T17:42:24.033Z,2.15
2022-11-05T17:44:50.649Z,1.77
2022-11-05T17:47:18.725Z,2.30
2022-11-05T17:49:46.020Z,2.30
2022-11-05T17:52:12.553Z,2.05
2022-11-05T17:54:39.157Z,2.58
2022-11-05T17:57:06.086Z,2.40
2022-11-05T17:59:32.662Z,2.50
2022-11-05T18:01:59.434Z,2.00
2022-11-05T18:04:27.839Z,2.90
2022-11-05T18:06:54.514Z,2.67
2022-11-05T18:09:21.144Z,2.85
2022-11-05T18:11:48.447Z,2.47
2022-11-05T18:14:18.766Z,2.53
2022-11-05T18:16:48.081Z,3.15
2022-11-05T18:19:14.780Z,2.75
2022-11-05T18:21:43.790Z,3.05
2022-11-05T18:24:10.425Z,3.50
2022-11-05T18:26:37.142Z,3.55
2022-11-05T18:29:05.844Z,3.70
2022-11-05T18:31:32.791Z,3.35
2022-11-05T18:34:00.032Z,3.80
2022-11-05T18:36:28.537Z,3.72
2022-11-05T18:38:57.249Z,4.45
2022-11-05T18:41:24.819Z,3.90
2022-11-05T18:43:51.769Z,3.92
2022-11-05T18:46:43.043Z,4.85
2022-11-05T18:49:05.744Z,5.45
2022-11-05T18:51:32.727Z,4.45
2022-11-05T18:54:03.341Z,4.20
2022-11-05T18:56:30.132Z,4.18
2022-11-05T18:59:15.094Z,4.13
2022-11-05T19:01:44.101Z,4.20
2022-11-05T19:04:11.454Z,4.68
2022-11-05T19:06:41.473Z,5.00
2022-11-05T19:09:10.400Z,5.00
2022-11-05T19:11:38.026Z,4.75
2022-11-05T19:14:04.970Z,5.00
2022-11-05T19:16:32.616Z,5.07
2022-11-05T19:19:00.640Z,5.10
2022-11-05T19:21:28.309Z,5.57
2022-11-05T19:23:57.450Z,5.30
2022-11-05T19:26:28.849Z,5.63
2022-11-05T19:28:57.888Z,5.30
2022-11-05T19:31:24.960Z,5.55
2022-11-05T19:33:52.800Z,5.53
2022-11-05T19:36:21.699Z,5.28
2022-11-05T19:38:49.019Z,5.47
2022-11-05T19:41:16.582Z,5.70
2022-11-05T19:43:45.854Z,6.32
2022-11-05T19:46:14.869Z,5.95
2022-11-05T19:48:42.279Z,5.78
2022-11-05T19:51:11.064Z,5.25
2022-11-05T19:53:39.329Z,5.45
2022-11-05T19:56:08.641Z,6.03
2022-11-05T19:58:35.445Z,6.70
2022-11-05T20:01:05.948Z,5.50
2022-11-05T20:03:34.293Z,21.92
2022-11-05T20:06:02.240Z,8.00
2022-11-05T20:08:29.640Z,5.85
2022-11-05T20:10:56.692Z,5.47
2022-11-05T20:13:24.200Z,6.00
2022-11-05T20:15:51.212Z,5.80
2022-11-05T20:18:19.430Z,6.78
2022-11-05T20:20:49.210Z,6.45
2022-11-05T20:23:18.285Z,5.93
2022-11-05T20:25:45.207Z,6.53
2022-11-05T20:28:12.227Z,5.25
2022-11-05T20:30:39.464Z,5.80
2022-11-05T20:33:06.277Z,5.40
2022-11-05T20:35:36.260Z,6.13
2022-11-05T20:38:03.006Z,5.68
2022-11-05T20:40:29.765Z,5.38
2022-11-05T20:42:57.020Z,5.25
2022-11-05T20:45:24.945Z,5.25
2022-11-05T20:47:52.139Z,4.97
2022-11-05T20:50:18.977Z,4.43
2022-11-05T20:52:47.317Z,5.40
2022-11-05T20:55:17.648Z,5.63
2022-11-05T20:57:45.551Z,5.40
2022-11-05T21:00:13.899Z,4.80
2022-11-05T21:02:41.912Z,5.10
2022-11-05T21:05:09.598Z,5.47
2022-11-05T21:07:36.316Z,4.82
2022-11-05T21:10:05.671Z,4.97
2022-11-05T21:12:32.325Z,5.07
2022-11-05T21:15:00.229Z,5.10
2022-11-05T21:17:27.045Z,4.70
2022-11-05T21:19:53.633Z,4.90
2022-11-05T21:22:20.348Z,4.95
2022-11-05T21:24:49.523Z,4.80
2022-11-05T21:27:20.371Z,4.70
2022-11-05T21:29:47.477Z,3.97
2022-11-05T21:32:14.185Z,4.50
2022-11-05T21:34:41.468Z,4.80
2022-11-05T21:37:08.232Z,4.68
2022-11-05T21:39:35.070Z,4.18
2022-11-05T21:42:02.341Z,3.70
2022-11-05T21:44:30.427Z,4.30
2022-11-05T21:46:57.540Z,4.50
2022-11-05T21:49:24.619Z,4.75
2022-11-05T21:51:51.819Z,4.18
2022-11-05T21:54:18.477Z,4.88
2022-11-05T21:56:45.638Z,4.03
2022-11-05T21:59:14.297Z,4.20
2022-11-05T22:01:42.509Z,4.65
2022-11-05T22:04:09.355Z,4.05
2022-11-05T22:06:36.178Z,4.65
2022-11-05T22:09:02.900Z,4.20
2022-11-05T22:11:29.637Z,5.43
2022-11-05T22:13:56.381Z,5.45
2022-11-05T22:16:23.132Z,3.92
2022-11-05T22:18:56.483Z,4.13
2022-11-05T22:21:24.521Z,4.00
2022-11-05T22:23:52.047Z,4.25
2022-11-05T22:26:19.018Z,4.38
2022-11-05T22:28:45.713Z,4.43
2022-11-05T22:31:13.079Z,4.60
2022-11-05T22:33:39.830Z,4.72
2022-11-05T22:36:08.856Z,4.00
2022-11-05T22:38:35.672Z,5.00
2022-11-05T22:41:07.340Z,3.72
2022-11-05T22:43:34.173Z,5.88
2022-11-05T22:46:03.871Z,6.28
2022-11-05T22:48:30.623Z,5.07
2022-11-05T22:51:02.773Z,4.05
2022-11-05T22:53:31.000Z,3.50
2022-11-05T22:55:58.211Z,3.80
2022-11-05T22:58:24.788Z,4.15
2022-11-05T23:00:51.429Z,3.80
2022-11-05T23:03:18.055Z,3.47
2022-11-05T23:05:44.899Z,3.63
2022-11-05T23:08:11.798Z,3.50
2022-11-05T23:10:40.286Z,3.72
2022-11-05T23:13:06.958Z,3.67
2022-11-05T23:15:34.495Z,6.55
2022-11-05T23:18:01.779Z,3.92
2022-11-05T23:20:28.419Z,4.65
2022-11-05T23:22:55.301Z,3.30
2022-11-05T23:25:23.464Z,3.72
2022-11-05T23:27:53.857Z,3.55
2022-11-05T23:30:22.281Z,3.35
2022-11-05T23:32:49.995Z,3.03
2022-11-05T23:35:17.055Z,3.38
2022-11-05T23:37:43.703Z,4.10
2022-11-05T23:40:13.282Z,2.95
2022-11-05T23:42:39.817Z,3.08
2022-11-05T23:45:14.077Z,3.22
2022-11-05T23:47:41.306Z,3.25
2022-11-05T23:50:08.577Z,3.03
2022-11-05T23:52:35.322Z,2.90
2022-11-05T23:55:01.853Z,2.97
2022-11-05T23:57:28.477Z,3.00
2022-11-05T23:59:54.959Z,3.30
